sensor_id;sensor_type;location;lat;lon;timestamp;temperature;humidity
3334;DHT22;1679;50.392;8.008;2022-12-18T00:01:21;-7.00;99.90
3334;DHT22;1679;50.392;8.008;2022-12-18T00:03:48;-7.00;99.90
3334;DHT22;1679;50.392;8.008;2022-12-18T00:06:14;-6.90;99.90
3334;DHT22;1679;50.392;8.008;2022-12-18T00:08:42;-6.90;99.90
3334;DHT22;1679;50.392;8.008;2022-12-18T00:11:13;-6.90;99.90
3334;DHT22;1679;50.392;8.008;2022-12-18T00:13:39;-7.00;99.90
3334;DHT22;1679;50.392;8.008;2022-12-18T00:16:06;-7.00;99.90
3334;DHT22;1679;50.392;8.008;2022-12-18T00:18:33;-7.10;99.90
3334;DHT22;1679;50.392;8.008;2022-12-18T00:21:04;-7.10;99.90
3334;DHT22;1679;50.392;8.008;2022-12-18T00:23:33;-7.10;99.90
3334;DHT22;1679;50.392;8.008;2022-12-18T00:26:07;-7.00;99.90
3334;DHT22;1679;50.392;8.008;2022-12-18T00:28:34;-7.00;99.90
3334;DHT22;1679;50.392;8.008;2022-12-18T00:31:05;-6.90;99.90
3334;DHT22;1679;50.392;8.008;2022-12-18T00:33:31;-6.90;99.90
3334;DHT22;1679;50.392;8.008;2022-12-18T00:36:01;-6.80;99.90
3334;DHT22;1679;50.392;8.008;2022-12-18T00:38:27;-6.70;99.90
3334;DHT22;1679;50.392;8.008;2022-12-18T00:40:55;-6.50;99.90
3334;DHT22;1679;50.392;8.008;2022-12-18T00:43:22;-6.50;99.90
3334;DHT22;1679;50.392;8.008;2022-12-18T00:45:47;-6.60;99.90
3334;DHT22;1679;50.392;8.008;2022-12-18T00:48:13;-6.50;99.90
3334;DHT22;1679;50.392;8.008;2022-12-18T00:50:38;-6.50;99.90
3334;DHT22;1679;50.392;8.008;2022-12-18T00:53:04;-6.60;99.90
3334;DHT22;1679;50.392;8.008;2022-12-18T00:55:29;-6.60;99.90
3334;DHT22;1679;50.392;8.008;2022-12-18T00:57:55;-6.70;99.90
3334;DHT22;1679;50.392;8.008;2022-12-18T01:00:21;-6.80;99.90
3334;DHT22;1679;50.392;8.008;2022-12-18T01:02:46;-7.00;99.90
3334;DHT22;1679;50.392;8.008;2022-12-18T01:05:12;-7.00;99.90
3334;DHT22;1679;50.392;8.008;2022-12-18T01:07:39;-7.00;99.90
3334;DHT22;1679;50.392;8.008;2022-12-18T01:10:06;-7.10;99.90
3334;DHT22;1679;50.392;8.008;2022-12-18T01:12:32;-7.20;99.90
3334;DHT22;1679;50.392;8.008;2022-12-18T01:14:58;-7.30;99.90
3334;DHT22;1679;50.392;8.008;2022-12-18T01:17:24;-7.30;99.90
3334;DHT22;1679;50.392;8.008;2022-12-18T01:19:49;-7.30;99.90
3334;DHT22;1679;50.392;8.008;2022-12-18T01:22:15;-7.30;99.90
3334;DHT22;1679;50.392;8.008;2022-12-18T01:24:40;-7.50;99.90
3334;DHT22;1679;50.392;8.008;2022-12-18T01:27:06;-7.60;99.90
3334;DHT22;1679;50.392;8.008;2022-12-18T01:29:32;-7.60;99.90
3334;DHT22;1679;50.392;8.008;2022-12-18T01:31:57;-7.60;99.90
3334;DHT22;1679;50.392;8.008;2022-12-18T01:34:23;-7.50;99.90
3334;DHT22;1679;50.392;8.008;2022-12-18T01:36:49;-7.50;99.90
3334;DHT22;1679;50.392;8.008;2022-12-18T01:39:17;-7.40;99.90
3334;DHT22;1679;50.392;8.008;2022-12-18T01:41:43;-7.40;99.90
3334;DHT22;1679;50.392;8.008;2022-12-18T01:50:14;-7.20;99.90
3334;DHT22;1679;50.392;8.008;2022-12-18T01:52:42;-7.20;99.90
3334;DHT22;1679;50.392;8.008;2022-12-18T01:55:13;-7.10;99.90
3334;DHT22;1679;50.392;8.008;2022-12-18T01:57:40;-7.10;99.90
3334;DHT22;1679;50.392;8.008;2022-12-18T02:00:13;-7.00;99.90
3334;DHT22;1679;50.392;8.008;2022-12-18T02:02:41;-7.00;99.90
3334;DHT22;1679;50.392;8.008;2022-12-18T02:05:07;-7.10;99.90
3334;DHT22;1679;50.392;8.008;2022-12-18T02:10:35;-7.00;99.90
3334;DHT22;1679;50.392;8.008;2022-12-18T02:15:47;-6.90;99.90
3334;DHT22;1679;50.392;8.008;2022-12-18T02:18:23;-6.90;99.90
3334;DHT22;1679;50.392;8.008;2022-12-18T02:20:55;-7.00;99.90
3334;DHT22;1679;50.392;8.008;2022-12-18T02:23:47;-7.00;99.90
3334;DHT22;1679;50.392;8.008;2022-12-18T02:26:37;-6.80;99.90
3334;DHT22;1679;50.392;8.008;2022-12-18T02:29:29;-6.80;99.90
3334;DHT22;1679;50.392;8.008;2022-12-18T02:32:02;-6.70;99.90
3334;DHT22;1679;50.392;8.008;2022-12-18T02:34:31;-6.60;99.90
3334;DHT22;1679;50.392;8.008;2022-12-18T02:37:00;-6.60;99.90
3334;DHT22;1679;50.392;8.008;2022-12-18T02:39:28;-6.60;99.90
3334;DHT22;1679;50.392;8.008;2022-12-18T02:41:58;-6.60;99.90
3334;DHT22;1679;50.392;8.008;2022-12-18T02:44:27;-6.80;99.90
3334;DHT22;1679;50.392;8.008;2022-12-18T02:46:53;-6.80;99.90
3334;DHT22;1679;50.392;8.008;2022-12-18T02:49:46;-6.90;99.90
3334;DHT22;1679;50.392;8.008;2022-12-18T02:58:06;-7.30;99.90
3334;DHT22;1679;50.392;8.008;2022-12-18T03:00:42;-7.40;99.90
3334;DHT22;1679;50.392;8.008;2022-12-18T03:03:29;-7.50;99.90
3334;DHT22;1679;50.392;8.008;2022-12-18T03:06:10;-7.60;99.90
3334;DHT22;1679;50.392;8.008;2022-12-18T03:08:41;-7.70;99.90
3334;DHT22;1679;50.392;8.008;2022-12-18T03:11:10;-7.80;99.90
3334;DHT22;1679;50.392;8.008;2022-12-18T03:13:46;-7.90;99.90
3334;DHT22;1679;50.392;8.008;2022-12-18T03:16:24;-7.90;99.90
3334;DHT22;1679;50.392;8.008;2022-12-18T03:18:55;-7.90;99.90
3334;DHT22;1679;50.392;8.008;2022-12-18T03:21:28;-7.80;99.90
3334;DHT22;1679;50.392;8.008;2022-12-18T03:23:55;-7.90;99.90
3334;DHT22;1679;50.392;8.008;2022-12-18T03:26:24;-7.80;99.90
3334;DHT22;1679;50.392;8.008;2022-12-18T03:28:59;-7.70;99.90
3334;DHT22;1679;50.392;8.008;2022-12-18T03:31:27;-7.70;99.90
3334;DHT22;1679;50.392;8.008;2022-12-18T03:33:58;-7.70;99.90
3334;DHT22;1679;50.392;8.008;2022-12-18T03:36:24;-7.70;99.90
3334;DHT22;1679;50.392;8.008;2022-12-18T03:38:51;-7.70;99.90
3334;DHT22;1679;50.392;8.008;2022-12-18T03:41:44;-7.70;99.90
3334;DHT22;1679;50.392;8.008;2022-12-18T03:52:26;-7.70;99.90
3334;DHT22;1679;50.392;8.008;2022-12-18T03:54:55;-7.70;99.90
3334;DHT22;1679;50.392;8.008;2022-12-18T03:57:25;-7.70;99.90
3334;DHT22;1679;50.392;8.008;2022-12-18T03:59:56;-7.70;99.90
3334;DHT22;1679;50.392;8.008;2022-12-18T04:02:23;-7.70;99.90
3334;DHT22;1679;50.392;8.008;2022-12-18T04:04:55;-7.70;99.90
3334;DHT22;1679;50.392;8.008;2022-12-18T04:07:23;-7.70;99.90
3334;DHT22;1679;50.392;8.008;2022-12-18T04:09:51;-7.80;99.90
3334;DHT22;1679;50.392;8.008;2022-12-18T04:12:18;-7.90;99.90
3334;DHT22;1679;50.392;8.008;2022-12-18T04:14:44;-7.90;99.90
3334;DHT22;1679;50.392;8.008;2022-12-18T04:17:10;-7.90;99.90
3334;DHT22;1679;50.392;8.008;2022-12-18T04:19:37;-7.90;99.90
3334;DHT22;1679;50.392;8.008;2022-12-18T04:22:02;-8.00;99.90
3334;DHT22;1679;50.392;8.008;2022-12-18T04:24:28;-8.00;99.90
3334;DHT22;1679;50.392;8.008;2022-12-18T04:26:54;-8.10;99.90
3334;DHT22;1679;50.392;8.008;2022-12-18T04:29:19;-8.20;99.90
3334;DHT22;1679;50.392;8.008;2022-12-18T04:31:45;-8.40;99.90
3334;DHT22;1679;50.392;8.008;2022-12-18T04:34:14;-8.50;99.90
3334;DHT22;1679;50.392;8.008;2022-12-18T04:36:41;-8.60;99.90
3334;DHT22;1679;50.392;8.008;2022-12-18T04:39:06;-8.70;99.90
3334;DHT22;1679;50.392;8.008;2022-12-18T04:41:33;-8.70;99.90
3334;DHT22;1679;50.392;8.008;2022-12-18T04:43:58;-8.80;99.90
3334;DHT22;1679;50.392;8.008;2022-12-18T04:46:24;-8.80;99.90
3334;DHT22;1679;50.392;8.008;2022-12-18T04:48:49;-8.90;99.90
3334;DHT22;1679;50.392;8.008;2022-12-18T04:51:15;-8.90;99.90
3334;DHT22;1679;50.392;8.008;2022-12-18T04:53:40;-9.00;99.90
3334;DHT22;1679;50.392;8.008;2022-12-18T04:56:12;-9.00;99.90
3334;DHT22;1679;50.392;8.008;2022-12-18T04:58:39;-9.10;99.90
3334;DHT22;1679;50.392;8.008;2022-12-18T05:01:06;-9.10;99.90
3334;DHT22;1679;50.392;8.008;2022-12-18T05:03:33;-9.20;99.90
3334;DHT22;1679;50.392;8.008;2022-12-18T05:05:59;-9.20;99.90
3334;DHT22;1679;50.392;8.008;2022-12-18T05:08:24;-9.20;99.90
3334;DHT22;1679;50.392;8.008;2022-12-18T05:11:00;-9.20;99.90
3334;DHT22;1679;50.392;8.008;2022-12-18T05:13:26;-9.10;99.90
3334;DHT22;1679;50.392;8.008;2022-12-18T05:15:53;-9.20;99.90
3334;DHT22;1679;50.392;8.008;2022-12-18T05:18:18;-9.20;99.90
3334;DHT22;1679;50.392;8.008;2022-12-18T05:20:44;-9.30;99.90
3334;DHT22;1679;50.392;8.008;2022-12-18T05:23:11;-9.30;99.90
3334;DHT22;1679;50.392;8.008;2022-12-18T05:25:38;-9.30;99.90
3334;DHT22;1679;50.392;8.008;2022-12-18T05:28:03;-9.40;99.90
3334;DHT22;1679;50.392;8.008;2022-12-18T05:30:29;-9.40;99.90
3334;DHT22;1679;50.392;8.008;2022-12-18T05:32:54;-9.40;99.90
3334;DHT22;1679;50.392;8.008;2022-12-18T05:35:20;-9.40;99.90
3334;DHT22;1679;50.392;8.008;2022-12-18T05:37:46;-9.40;99.90
3334;DHT22;1679;50.392;8.008;2022-12-18T05:40:12;-9.40;99.90
3334;DHT22;1679;50.392;8.008;2022-12-18T05:42:37;-9.50;99.90
3334;DHT22;1679;50.392;8.008;2022-12-18T05:45:05;-9.50;99.90
3334;DHT22;1679;50.392;8.008;2022-12-18T05:47:31;-9.60;99.90
3334;DHT22;1679;50.392;8.008;2022-12-18T05:49:56;-9.60;99.90
3334;DHT22;1679;50.392;8.008;2022-12-18T05:52:23;-9.70;99.90
3334;DHT22;1679;50.392;8.008;2022-12-18T05:54:49;-9.70;99.90
3334;DHT22;1679;50.392;8.008;2022-12-18T05:57:16;-9.70;99.90
3334;DHT22;1679;50.392;8.008;2022-12-18T05:59:43;-9.80;99.90
3334;DHT22;1679;50.392;8.008;2022-12-18T06:02:09;-9.70;99.90
3334;DHT22;1679;50.392;8.008;2022-12-18T06:04:35;-9.70;99.90
3334;DHT22;1679;50.392;8.008;2022-12-18T06:07:03;-9.80;99.90
3334;DHT22;1679;50.392;8.008;2022-12-18T06:09:29;-9.80;99.90
3334;DHT22;1679;50.392;8.008;2022-12-18T06:11:55;-9.80;99.90
3334;DHT22;1679;50.392;8.008;2022-12-18T06:14:21;-9.70;99.90
3334;DHT22;1679;50.392;8.008;2022-12-18T06:16:46;-9.70;99.90
3334;DHT22;1679;50.392;8.008;2022-12-18T06:19:15;-9.70;99.90
3334;DHT22;1679;50.392;8.008;2022-12-18T06:21:41;-9.80;99.90
3334;DHT22;1679;50.392;8.008;2022-12-18T06:24:07;-9.80;99.90
3334;DHT22;1679;50.392;8.008;2022-12-18T06:26:33;-9.90;99.90
3334;DHT22;1679;50.392;8.008;2022-12-18T06:28:59;-10.00;99.90
3334;DHT22;1679;50.392;8.008;2022-12-18T06:31:26;-10.00;99.90
3334;DHT22;1679;50.392;8.008;2022-12-18T06:33:52;-10.00;99.90
3334;DHT22;1679;50.392;8.008;2022-12-18T06:36:18;-10.00;99.90
3334;DHT22;1679;50.392;8.008;2022-12-18T06:38:45;-10.00;99.90
3334;DHT22;1679;50.392;8.008;2022-12-18T06:41:12;-10.00;99.90
3334;DHT22;1679;50.392;8.008;2022-12-18T06:43:40;-10.00;99.90
3334;DHT22;1679;50.392;8.008;2022-12-18T06:46:08;-9.90;99.90
3334;DHT22;1679;50.392;8.008;2022-12-18T06:48:34;-9.90;99.90
3334;DHT22;1679;50.392;8.008;2022-12-18T06:51:00;-9.90;99.90
3334;DHT22;1679;50.392;8.008;2022-12-18T06:53:26;-9.90;99.90
3334;DHT22;1679;50.392;8.008;2022-12-18T06:56:00;-9.90;99.90
3334;DHT22;1679;50.392;8.008;2022-12-18T06:58:25;-9.90;99.90
3334;DHT22;1679;50.392;8.008;2022-12-18T07:00:52;-9.90;99.90
3334;DHT22;1679;50.392;8.008;2022-12-18T07:03:18;-9.90;99.90
3334;DHT22;1679;50.392;8.008;2022-12-18T07:05:44;-9.90;99.90
3334;DHT22;1679;50.392;8.008;2022-12-18T07:08:10;-9.90;99.90
3334;DHT22;1679;50.392;8.008;2022-12-18T07:10:43;-9.90;99.90
3334;DHT22;1679;50.392;8.008;2022-12-18T07:13:09;-10.00;99.90
3334;DHT22;1679;50.392;8.008;2022-12-18T07:15:35;-10.00;99.90
3334;DHT22;1679;50.392;8.008;2022-12-18T07:18:02;-10.00;99.90
3334;DHT22;1679;50.392;8.008;2022-12-18T07:20:27;-10.00;99.90
3334;DHT22;1679;50.392;8.008;2022-12-18T07:22:53;-10.00;99.90
3334;DHT22;1679;50.392;8.008;2022-12-18T07:25:18;-10.00;99.90
3334;DHT22;1679;50.392;8.008;2022-12-18T07:27:44;-10.00;99.90
3334;DHT22;1679;50.392;8.008;2022-12-18T07:30:10;-10.00;99.90
3334;DHT22;1679;50.392;8.008;2022-12-18T07:32:35;-10.00;99.90
3334;DHT22;1679;50.392;8.008;2022-12-18T07:35:01;-10.00;99.90
3334;DHT22;1679;50.392;8.008;2022-12-18T07:37:26;-10.00;99.90
3334;DHT22;1679;50.392;8.008;2022-12-18T07:39:52;-9.90;99.90
3334;DHT22;1679;50.392;8.008;2022-12-18T07:42:19;-9.80;99.90
3334;DHT22;1679;50.392;8.008;2022-12-18T07:44:57;-9.70;99.90
3334;DHT22;1679;50.392;8.008;2022-12-18T07:47:23;-9.70;99.90
3334;DHT22;1679;50.392;8.008;2022-12-18T07:49:49;-9.70;99.90
3334;DHT22;1679;50.392;8.008;2022-12-18T07:52:15;-9.60;99.90
3334;DHT22;1679;50.392;8.008;2022-12-18T07:54:40;-9.60;99.90
3334;DHT22;1679;50.392;8.008;2022-12-18T07:57:06;-9.50;99.90
3334;DHT22;1679;50.392;8.008;2022-12-18T07:59:32;-9.40;99.90
3334;DHT22;1679;50.392;8.008;2022-12-18T08:01:57;-9.30;99.90
3334;DHT22;1679;50.392;8.008;2022-12-18T08:04:24;-9.10;99.90
3334;DHT22;1679;50.392;8.008;2022-12-18T08:06:50;-8.90;99.90
3334;DHT22;1679;50.392;8.008;2022-12-18T08:09:15;-8.80;99.90
3334;DHT22;1679;50.392;8.008;2022-12-18T08:11:42;-8.60;99.90
3334;DHT22;1679;50.392;8.008;2022-12-18T08:14:11;-8.40;99.90
3334;DHT22;1679;50.392;8.008;2022-12-18T08:16:36;-8.20;99.90
3334;DHT22;1679;50.392;8.008;2022-12-18T08:19:02;-8.00;99.90
3334;DHT22;1679;50.392;8.008;2022-12-18T08:21:30;-7.90;99.90
3334;DHT22;1679;50.392;8.008;2022-12-18T08:23:58;-7.80;99.90
3334;DHT22;1679;50.392;8.008;2022-12-18T08:26:25;-7.80;99.90
3334;DHT22;1679;50.392;8.008;2022-12-18T08:28:53;-7.60;99.90
3334;DHT22;1679;50.392;8.008;2022-12-18T08:31:19;-7.60;99.90
3334;DHT22;1679;50.392;8.008;2022-12-18T08:33:45;-7.50;99.90
3334;DHT22;1679;50.392;8.008;2022-12-18T08:36:11;-7.30;99.90
3334;DHT22;1679;50.392;8.008;2022-12-18T08:38:37;-7.20;99.90
3334;DHT22;1679;50.392;8.008;2022-12-18T08:41:09;-7.00;99.90
3334;DHT22;1679;50.392;8.008;2022-12-18T08:43:35;-7.00;99.90
3334;DHT22;1679;50.392;8.008;2022-12-18T08:46:23;-6.80;99.90
3334;DHT22;1679;50.392;8.008;2022-12-18T08:48:50;-6.60;99.90
3334;DHT22;1679;50.392;8.008;2022-12-18T08:51:17;-6.40;99.90
3334;DHT22;1679;50.392;8.008;2022-12-18T08:53:43;-6.20;99.90
3334;DHT22;1679;50.392;8.008;2022-12-18T08:56:10;-6.00;99.90
3334;DHT22;1679;50.392;8.008;2022-12-18T08:58:35;-5.80;99.90
3334;DHT22;1679;50.392;8.008;2022-12-18T09:01:07;-5.70;99.90
3334;DHT22;1679;50.392;8.008;2022-12-18T09:03:34;-5.70;99.90
3334;DHT22;1679;50.392;8.008;2022-12-18T09:06:01;-5.60;99.90
3334;DHT22;1679;50.392;8.008;2022-12-18T09:08:27;-5.50;99.90
3334;DHT22;1679;50.392;8.008;2022-12-18T09:10:53;-5.50;99.90
3334;DHT22;1679;50.392;8.008;2022-12-18T09:13:19;-5.50;99.90
3334;DHT22;1679;50.392;8.008;2022-12-18T09:15:49;-5.50;99.90
3334;DHT22;1679;50.392;8.008;2022-12-18T09:18:17;-5.60;99.90
3334;DHT22;1679;50.392;8.008;2022-12-18T09:20:43;-5.70;99.90
3334;DHT22;1679;50.392;8.008;2022-12-18T09:23:09;-5.60;99.90
3334;DHT22;1679;50.392;8.008;2022-12-18T09:25:37;-5.60;99.90
3334;DHT22;1679;50.392;8.008;2022-12-18T09:28:14;-5.50;99.90
3334;DHT22;1679;50.392;8.008;2022-12-18T09:30:41;-5.40;99.90
3334;DHT22;1679;50.392;8.008;2022-12-18T09:33:07;-5.30;99.90
3334;DHT22;1679;50.392;8.008;2022-12-18T09:35:36;-5.40;99.90
3334;DHT22;1679;50.392;8.008;2022-12-18T09:38:01;-5.40;99.90
3334;DHT22;1679;50.392;8.008;2022-12-18T09:40:35;-5.30;99.90
3334;DHT22;1679;50.392;8.008;2022-12-18T09:43:04;-5.30;99.90
3334;DHT22;1679;50.392;8.008;2022-12-18T09:45:40;-5.30;99.90
3334;DHT22;1679;50.392;8.008;2022-12-18T09:48:15;-5.30;99.90
3334;DHT22;1679;50.392;8.008;2022-12-18T09:50:44;-5.30;99.90
3334;DHT22;1679;50.392;8.008;2022-12-18T09:53:16;-5.40;99.90
3334;DHT22;1679;50.392;8.008;2022-12-18T09:55:45;-5.50;99.90
3334;DHT22;1679;50.392;8.008;2022-12-18T09:58:16;-5.60;99.90
3334;DHT22;1679;50.392;8.008;2022-12-18T10:00:58;-5.60;99.90
3334;DHT22;1679;50.392;8.008;2022-12-18T10:03:24;-5.40;99.90
3334;DHT22;1679;50.392;8.008;2022-12-18T10:06:05;-5.30;99.90
3334;DHT22;1679;50.392;8.008;2022-12-18T10:08:53;-5.00;99.90
3334;DHT22;1679;50.392;8.008;2022-12-18T10:15:10;-4.70;99.90
3334;DHT22;1679;50.392;8.008;2022-12-18T10:20:27;-4.70;99.90
3334;DHT22;1679;50.392;8.008;2022-12-18T10:23:26;-4.60;99.90
3334;DHT22;1679;50.392;8.008;2022-12-18T10:26:07;-4.70;99.90
3334;DHT22;1679;50.392;8.008;2022-12-18T10:28:53;-4.70;99.90
3334;DHT22;1679;50.392;8.008;2022-12-18T10:31:21;-4.70;99.90
3334;DHT22;1679;50.392;8.008;2022-12-18T10:33:47;-4.60;99.90
3334;DHT22;1679;50.392;8.008;2022-12-18T10:36:13;-4.60;99.90
3334;DHT22;1679;50.392;8.008;2022-12-18T10:38:39;-4.60;99.90
3334;DHT22;1679;50.392;8.008;2022-12-18T10:43:38;-4.30;99.90
3334;DHT22;1679;50.392;8.008;2022-12-18T10:48:56;-4.00;99.90
3334;DHT22;1679;50.392;8.008;2022-12-18T10:51:26;-3.90;99.90
3334;DHT22;1679;50.392;8.008;2022-12-18T10:54:16;-3.80;99.90
3334;DHT22;1679;50.392;8.008;2022-12-18T10:56:42;-3.70;99.90
3334;DHT22;1679;50.392;8.008;2022-12-18T10:59:11;-3.70;99.90
3334;DHT22;1679;50.392;8.008;2022-12-18T11:04:29;-3.60;99.90
3334;DHT22;1679;50.392;8.008;2022-12-18T11:07:03;-3.50;99.90
3334;DHT22;1679;50.392;8.008;2022-12-18T11:09:34;-3.50;99.90
3334;DHT22;1679;50.392;8.008;2022-12-18T11:12:04;-3.50;99.90
3334;DHT22;1679;50.392;8.008;2022-12-18T11:14:34;-3.50;99.90
3334;DHT22;1679;50.392;8.008;2022-12-18T11:17:19;-3.60;99.90
3334;DHT22;1679;50.392;8.008;2022-12-18T11:19:58;-3.50;99.90
3334;DHT22;1679;50.392;8.008;2022-12-18T11:22:31;-3.40;99.90
3334;DHT22;1679;50.392;8.008;2022-12-18T11:25:01;-3.40;99.90
3334;DHT22;1679;50.392;8.008;2022-12-18T11:27:28;-3.40;99.90
3334;DHT22;1679;50.392;8.008;2022-12-18T11:30:08;-3.30;99.90
3334;DHT22;1679;50.392;8.008;2022-12-18T11:32:39;-3.30;99.90
3334;DHT22;1679;50.392;8.008;2022-12-18T11:35:17;-3.20;99.90
3334;DHT22;1679;50.392;8.008;2022-12-18T11:37:55;-3.20;99.90
3334;DHT22;1679;50.392;8.008;2022-12-18T11:40:38;-3.20;99.90
3334;DHT22;1679;50.392;8.008;2022-12-18T11:43:58;-3.10;99.90
3334;DHT22;1679;50.392;8.008;2022-12-18T11:46:32;-3.20;99.90
3334;DHT22;1679;50.392;8.008;2022-12-18T11:49:22;-3.30;99.90
3334;DHT22;1679;50.392;8.008;2022-12-18T11:52:13;-3.30;99.90
3334;DHT22;1679;50.392;8.008;2022-12-18T11:54:41;-3.30;99.90
3334;DHT22;1679;50.392;8.008;2022-12-18T11:59:56;-3.30;99.90
3334;DHT22;1679;50.392;8.008;2022-12-18T12:13:57;-3.60;99.90
3334;DHT22;1679;50.392;8.008;2022-12-18T12:16:49;-3.50;99.90
3334;DHT22;1679;50.392;8.008;2022-12-18T12:22:07;-3.30;99.90
3334;DHT22;1679;50.392;8.008;2022-12-18T12:25:13;-3.20;99.90
3334;DHT22;1679;50.392;8.008;2022-12-18T12:30:29;-3.10;99.90
3334;DHT22;1679;50.392;8.008;2022-12-18T12:33:12;-3.00;99.90
3334;DHT22;1679;50.392;8.008;2022-12-18T12:35:54;-3.10;99.90
3334;DHT22;1679;50.392;8.008;2022-12-18T12:38:22;-3.10;99.90
3334;DHT22;1679;50.392;8.008;2022-12-18T12:40:58;-3.00;99.90
3334;DHT22;1679;50.392;8.008;2022-12-18T12:43:46;-3.00;99.90
3334;DHT22;1679;50.392;8.008;2022-12-18T12:46:16;-2.90;99.90
3334;DHT22;1679;50.392;8.008;2022-12-18T12:48:57;-2.90;99.90
3334;DHT22;1679;50.392;8.008;2022-12-18T12:51:38;-2.90;99.90
3334;DHT22;1679;50.392;8.008;2022-12-18T12:54:21;-2.80;99.90
3334;DHT22;1679;50.392;8.008;2022-12-18T13:04:58;-2.60;99.90
3334;DHT22;1679;50.392;8.008;2022-12-18T13:07:41;-2.50;99.90
3334;DHT22;1679;50.392;8.008;2022-12-18T13:16:03;-2.50;99.90
3334;DHT22;1679;50.392;8.008;2022-12-18T13:18:24;-2.50;99.90
3334;DHT22;1679;50.392;8.008;2022-12-18T13:21:07;-2.60;99.90
3334;DHT22;1679;50.392;8.008;2022-12-18T13:23:36;-2.60;99.90
3334;DHT22;1679;50.392;8.008;2022-12-18T13:31:59;-2.80;99.90
3334;DHT22;1679;50.392;8.008;2022-12-18T13:34:28;-2.80;99.90
3334;DHT22;1679;50.392;8.008;2022-12-18T13:39:57;-2.80;99.90
3334;DHT22;1679;50.392;8.008;2022-12-18T13:45:39;-2.80;99.90
3334;DHT22;1679;50.392;8.008;2022-12-18T13:48:19;-2.90;99.90
3334;DHT22;1679;50.392;8.008;2022-12-18T13:51:01;-3.00;99.90
3334;DHT22;1679;50.392;8.008;2022-12-18T13:53:53;-3.10;99.90
3334;DHT22;1679;50.392;8.008;2022-12-18T13:56:28;-3.20;99.90
3334;DHT22;1679;50.392;8.008;2022-12-18T13:59:24;-3.20;99.90
3334;DHT22;1679;50.392;8.008;2022-12-18T14:01:58;-3.20;99.90
3334;DHT22;1679;50.392;8.008;2022-12-18T14:04:29;-3.30;99.90
3334;DHT22;1679;50.392;8.008;2022-12-18T14:07:00;-3.30;99.90
3334;DHT22;1679;50.392;8.008;2022-12-18T14:09:29;-3.30;99.90
3334;DHT22;1679;50.392;8.008;2022-12-18T14:11:57;-3.30;99.90
3334;DHT22;1679;50.392;8.008;2022-12-18T14:14:46;-3.50;99.90
3334;DHT22;1679;50.392;8.008;2022-12-18T14:17:13;-3.60;99.90
3334;DHT22;1679;50.392;8.008;2022-12-18T14:19:44;-3.70;99.90
3334;DHT22;1679;50.392;8.008;2022-12-18T14:22:26;-3.70;99.90
3334;DHT22;1679;50.392;8.008;2022-12-18T14:27:41;-3.60;99.90
3334;DHT22;1679;50.392;8.008;2022-12-18T14:30:27;-3.60;99.90
3334;DHT22;1679;50.392;8.008;2022-12-18T14:33:10;-3.60;99.90
3334;DHT22;1679;50.392;8.008;2022-12-18T14:35:42;-3.60;99.90
3334;DHT22;1679;50.392;8.008;2022-12-18T14:38:20;-3.60;99.90
3334;DHT22;1679;50.392;8.008;2022-12-18T14:40:47;-3.60;99.90
3334;DHT22;1679;50.392;8.008;2022-12-18T14:43:13;-3.60;99.90
3334;DHT22;1679;50.392;8.008;2022-12-18T14:45:43;-3.60;99.90
3334;DHT22;1679;50.392;8.008;2022-12-18T14:50:59;-3.60;99.90
3334;DHT22;1679;50.392;8.008;2022-12-18T14:53:41;-3.60;99.90
3334;DHT22;1679;50.392;8.008;2022-12-18T14:56:20;-3.70;99.90
3334;DHT22;1679;50.392;8.008;2022-12-18T14:58:54;-3.60;99.90
3334;DHT22;1679;50.392;8.008;2022-12-18T15:03:55;-3.70;99.90
3334;DHT22;1679;50.392;8.008;2022-12-18T15:06:36;-3.70;99.90
3334;DHT22;1679;50.392;8.008;2022-12-18T15:09:28;-3.70;99.90
3334;DHT22;1679;50.392;8.008;2022-12-18T15:12:00;-3.80;99.90
3334;DHT22;1679;50.392;8.008;2022-12-18T15:14:34;-3.90;99.90
3334;DHT22;1679;50.392;8.008;2022-12-18T15:17:23;-3.90;99.90
3334;DHT22;1679;50.392;8.008;2022-12-18T15:19:51;-4.00;99.90
3334;DHT22;1679;50.392;8.008;2022-12-18T15:22:24;-4.00;99.90
3334;DHT22;1679;50.392;8.008;2022-12-18T15:24:50;-4.10;99.90
3334;DHT22;1679;50.392;8.008;2022-12-18T15:27:26;-4.10;99.90
3334;DHT22;1679;50.392;8.008;2022-12-18T15:32:36;-4.10;99.90
3334;DHT22;1679;50.392;8.008;2022-12-18T15:37:35;-4.10;99.90
3334;DHT22;1679;50.392;8.008;2022-12-18T15:40:01;-4.20;99.90
3334;DHT22;1679;50.392;8.008;2022-12-18T15:42:28;-4.30;99.90
3334;DHT22;1679;50.392;8.008;2022-12-18T15:45:12;-4.30;99.90
3334;DHT22;1679;50.392;8.008;2022-12-18T15:47:38;-4.40;99.90
3334;DHT22;1679;50.392;8.008;2022-12-18T15:50:04;-4.40;99.90
3334;DHT22;1679;50.392;8.008;2022-12-18T15:52:32;-4.50;99.90
3334;DHT22;1679;50.392;8.008;2022-12-18T15:55:00;-4.50;99.90
3334;DHT22;1679;50.392;8.008;2022-12-18T15:57:45;-4.60;99.90
3334;DHT22;1679;50.392;8.008;2022-12-18T16:00:12;-4.60;99.90
3334;DHT22;1679;50.392;8.008;2022-12-18T16:02:39;-4.60;99.90
3334;DHT22;1679;50.392;8.008;2022-12-18T16:05:14;-4.60;99.90
3334;DHT22;1679;50.392;8.008;2022-12-18T16:07:40;-4.60;99.90
3334;DHT22;1679;50.392;8.008;2022-12-18T16:10:06;-4.60;99.90
3334;DHT22;1679;50.392;8.008;2022-12-18T16:12:32;-4.70;99.90
3334;DHT22;1679;50.392;8.008;2022-12-18T16:14:58;-4.70;99.90
3334;DHT22;1679;50.392;8.008;2022-12-18T16:17:25;-4.80;99.90
3334;DHT22;1679;50.392;8.008;2022-12-18T16:19:51;-4.80;99.90
3334;DHT22;1679;50.392;8.008;2022-12-18T16:22:27;-4.90;99.90
3334;DHT22;1679;50.392;8.008;2022-12-18T16:24:54;-4.90;99.90
3334;DHT22;1679;50.392;8.008;2022-12-18T16:27:21;-4.90;99.90
3334;DHT22;1679;50.392;8.008;2022-12-18T16:29:50;-4.90;99.90
3334;DHT22;1679;50.392;8.008;2022-12-18T16:32:17;-5.00;99.90
3334;DHT22;1679;50.392;8.008;2022-12-18T16:34:44;-5.00;99.90
3334;DHT22;1679;50.392;8.008;2022-12-18T16:37:11;-5.00;99.90
3334;DHT22;1679;50.392;8.008;2022-12-18T16:39:38;-5.00;99.90
3334;DHT22;1679;50.392;8.008;2022-12-18T16:42:24;-5.00;99.90
3334;DHT22;1679;50.392;8.008;2022-12-18T16:44:49;-5.00;99.90
3334;DHT22;1679;50.392;8.008;2022-12-18T16:47:17;-4.90;99.90
3334;DHT22;1679;50.392;8.008;2022-12-18T16:49:43;-4.90;99.90
3334;DHT22;1679;50.392;8.008;2022-12-18T16:52:10;-5.00;99.90
3334;DHT22;1679;50.392;8.008;2022-12-18T16:54:36;-5.00;99.90
3334;DHT22;1679;50.392;8.008;2022-12-18T16:57:02;-4.90;99.90
3334;DHT22;1679;50.392;8.008;2022-12-18T16:59:29;-4.90;99.90
3334;DHT22;1679;50.392;8.008;2022-12-18T17:01:55;-4.90;99.90
3334;DHT22;1679;50.392;8.008;2022-12-18T17:04:22;-4.90;99.90
3334;DHT22;1679;50.392;8.008;2022-12-18T17:06:49;-4.80;99.90
3334;DHT22;1679;50.392;8.008;2022-12-18T17:09:16;-4.80;99.90
3334;DHT22;1679;50.392;8.008;2022-12-18T17:11:42;-4.70;99.90
3334;DHT22;1679;50.392;8.008;2022-12-18T17:14:11;-4.70;99.90
3334;DHT22;1679;50.392;8.008;2022-12-18T17:16:38;-4.80;99.90
3334;DHT22;1679;50.392;8.008;2022-12-18T17:19:04;-4.80;99.90
3334;DHT22;1679;50.392;8.008;2022-12-18T17:21:29;-4.80;99.90
3334;DHT22;1679;50.392;8.008;2022-12-18T17:23:55;-4.80;99.90
3334;DHT22;1679;50.392;8.008;2022-12-18T17:26:24;-4.80;99.90
3334;DHT22;1679;50.392;8.008;2022-12-18T17:28:50;-4.70;99.90
3334;DHT22;1679;50.392;8.008;2022-12-18T17:31:18;-4.70;99.90
3334;DHT22;1679;50.392;8.008;2022-12-18T17:33:45;-4.80;99.90
3334;DHT22;1679;50.392;8.008;2022-12-18T17:36:11;-4.70;99.90
3334;DHT22;1679;50.392;8.008;2022-12-18T17:38:49;-4.70;99.90
3334;DHT22;1679;50.392;8.008;2022-12-18T17:41:17;-4.70;99.90
3334;DHT22;1679;50.392;8.008;2022-12-18T17:44:02;-4.70;99.90
3334;DHT22;1679;50.392;8.008;2022-12-18T17:46:30;-4.70;99.90
3334;DHT22;1679;50.392;8.008;2022-12-18T17:48:56;-4.80;99.90
3334;DHT22;1679;50.392;8.008;2022-12-18T17:51:22;-4.70;99.90
3334;DHT22;1679;50.392;8.008;2022-12-18T17:53:48;-4.70;99.90
3334;DHT22;1679;50.392;8.008;2022-12-18T17:56:16;-4.70;99.90
3334;DHT22;1679;50.392;8.008;2022-12-18T17:58:43;-4.70;99.90
3334;DHT22;1679;50.392;8.008;2022-12-18T18:01:11;-4.70;99.90